sensor_id;sensor_type;location;lat;lon;timestamp;noise_LAeq;noise_LA_min;noise_LA_max;noise_LA01;noise_LA95
66456;Laerm;56833;52.254;5.598;2022-08-25T00:00:03;29.20;27.62;36.24;;
66456;Laerm;56833;52.254;5.598;2022-08-25T00:00:14;28.92;27.34;34.27;;
66456;Laerm;56833;52.254;5.598;2022-08-25T00:00:24;28.78;27.61;34.27;;
66456;Laerm;56833;52.254;5.598;2022-08-25T00:00:35;29.39;27.37;42.08;;
66456;Laerm;56833;52.254;5.598;2022-08-25T00:00:46;28.84;27.69;34.74;;
66456;Laerm;56833;52.254;5.598;2022-08-25T00:00:57;28.91;27.74;37.73;;
66456;Laerm;56833;52.254;5.598;2022-08-25T00:01:11;28.70;27.62;34.40;;
66456;Laerm;56833;52.254;5.598;2022-08-25T00:01:24;28.75;27.44;31.83;;
66456;Laerm;56833;52.254;5.598;2022-08-25T00:01:42;28.91;27.89;32.45;;
66456;Laerm;56833;52.254;5.598;2022-08-25T00:01:57;28.98;27.80;35.79;;
66456;Laerm;56833;52.254;5.598;2022-08-25T00:02:09;30.40;27.99;37.57;;
66456;Laerm;56833;52.254;5.598;2022-08-25T00:02:20;34.72;29.43;38.91;;
66456;Laerm;56833;52.254;5.598;2022-08-25T00:02:30;29.59;27.88;37.95;;
66456;Laerm;56833;52.254;5.598;2022-08-25T00:02:40;29.03;27.94;31.43;;
66456;Laerm;56833;52.254;5.598;2022-08-25T00:02:53;29.23;28.01;35.44;;
66456;Laerm;56833;52.254;5.598;2022-08-25T00:03:03;29.27;28.11;38.95;;
66456;Laerm;56833;52.254;5.598;2022-08-25T00:03:14;29.21;28.06;37.47;;
66456;Laerm;56833;52.254;5.598;2022-08-25T00:03:24;29.27;28.26;30.65;;
66456;Laerm;56833;52.254;5.598;2022-08-25T00:03:35;30.02;28.41;36.44;;
66456;Laerm;56833;52.254;5.598;2022-08-25T00:03:45;29.71;28.20;36.46;;
66456;Laerm;56833;52.254;5.598;2022-08-25T00:03:57;29.14;27.97;30.84;;
66456;Laerm;56833;52.254;5.598;2022-08-25T00:04:08;29.19;27.98;32.46;;
66456;Laerm;56833;52.254;5.598;2022-08-25T00:04:20;29.94;28.22;40.46;;
66456;Laerm;56833;52.254;5.598;2022-08-25T00:04:30;30.31;28.76;33.21;;
66456;Laerm;56833;52.254;5.598;2022-08-25T00:04:41;30.46;28.59;37.39;;
66456;Laerm;56833;52.254;5.598;2022-08-25T00:04:51;29.70;28.11;34.44;;
66456;Laerm;56833;52.254;5.598;2022-08-25T00:05:02;30.22;28.75;33.09;;
66456;Laerm;56833;52.254;5.598;2022-08-25T00:05:12;30.04;28.18;34.72;;
66456;Laerm;56833;52.254;5.598;2022-08-25T00:05:24;29.34;27.98;39.91;;
66456;Laerm;56833;52.254;5.598;2022-08-25T00:05:35;28.94;27.97;31.03;;
66456;Laerm;56833;52.254;5.598;2022-08-25T00:05:45;28.83;27.66;32.71;;
66456;Laerm;56833;52.254;5.598;2022-08-25T00:05:55;28.85;27.62;30.13;;
66456;Laerm;56833;52.254;5.598;2022-08-25T00:06:06;28.88;27.67;32.01;;
66456;Laerm;56833;52.254;5.598;2022-08-25T00:06:16;28.87;27.56;33.37;;
66456;Laerm;56833;52.254;5.598;2022-08-25T00:06:27;28.90;27.78;31.62;;
66456;Laerm;56833;52.254;5.598;2022-08-25T00:06:38;28.92;27.70;34.01;;
66456;Laerm;56833;52.254;5.598;2022-08-25T00:06:50;29.13;27.55;31.16;;
66456;Laerm;56833;52.254;5.598;2022-08-25T00:07:02;29.20;27.79;30.50;;
66456;Laerm;56833;52.254;5.598;2022-08-25T00:07:12;28.87;27.62;34.95;;
66456;Laerm;56833;52.254;5.598;2022-08-25T00:07:23;28.85;27.82;31.90;;
66456;Laerm;56833;52.254;5.598;2022-08-25T00:07:33;28.95;27.99;32.17;;
66456;Laerm;56833;52.254;5.598;2022-08-25T00:07:43;29.02;27.92;32.23;;
66456;Laerm;56833;52.254;5.598;2022-08-25T00:07:53;29.02;27.75;31.12;;
66456;Laerm;56833;52.254;5.598;2022-08-25T00:08:04;28.87;27.84;33.21;;
66456;Laerm;56833;52.254;5.598;2022-08-25T00:08:15;28.88;27.82;31.71;;
66456;Laerm;56833;52.254;5.598;2022-08-25T00:08:25;30.89;27.81;49.84;;
66456;Laerm;56833;52.254;5.598;2022-08-25T00:08:36;28.92;27.79;33.03;;
66456;Laerm;56833;52.254;5.598;2022-08-25T00:08:47;28.87;27.62;31.83;;
66456;Laerm;56833;52.254;5.598;2022-08-25T00:08:58;28.89;27.83;34.77;;
66456;Laerm;56833;52.254;5.598;2022-08-25T00:09:09;28.83;27.69;34.67;;
66456;Laerm;56833;52.254;5.598;2022-08-25T00:09:21;28.84;27.69;33.50;;
66456;Laerm;56833;52.254;5.598;2022-08-25T00:09:32;29.02;27.85;37.26;;
66456;Laerm;56833;52.254;5.598;2022-08-25T00:09:43;28.85;27.89;30.20;;
66456;Laerm;56833;52.254;5.598;2022-08-25T00:09:54;29.07;27.77;39.44;;
66456;Laerm;56833;52.254;5.598;2022-08-25T00:10:05;29.02;27.42;36.61;;
66456;Laerm;56833;52.254;5.598;2022-08-25T00:10:15;29.12;27.69;35.75;;
66456;Laerm;56833;52.254;5.598;2022-08-25T00:10:26;29.39;27.72;37.48;;
66456;Laerm;56833;52.254;5.598;2022-08-25T00:10:37;29.17;27.81;37.52;;
66456;Laerm;56833;52.254;5.598;2022-08-25T00:10:48;29.42;28.08;40.93;;
66456;Laerm;56833;52.254;5.598;2022-08-25T00:10:58;33.43;29.04;37.42;;
66456;Laerm;56833;52.254;5.598;2022-08-25T00:11:13;33.48;28.50;39.81;;
66456;Laerm;56833;52.254;5.598;2022-08-25T00:11:24;29.13;27.82;39.42;;
66456;Laerm;56833;52.254;5.598;2022-08-25T00:11:35;28.98;27.76;33.94;;
66456;Laerm;56833;52.254;5.598;2022-08-25T00:11:46;29.01;27.74;35.27;;
66456;Laerm;56833;52.254;5.598;2022-08-25T00:11:58;29.09;28.06;35.85;;
66456;Laerm;56833;52.254;5.598;2022-08-25T00:12:08;29.46;27.90;34.76;;
66456;Laerm;56833;52.254;5.598;2022-08-25T00:12:18;29.77;27.90;32.40;;
66456;Laerm;56833;52.254;5.598;2022-08-25T00:12:29;29.05;27.81;32.87;;
66456;Laerm;56833;52.254;5.598;2022-08-25T00:12:39;29.12;28.11;34.40;;
66456;Laerm;56833;52.254;5.598;2022-08-25T00:12:49;29.12;27.75;30.34;;
66456;Laerm;56833;52.254;5.598;2022-08-25T00:13:00;29.19;27.65;38.41;;
66456;Laerm;56833;52.254;5.598;2022-08-25T00:13:10;29.54;27.61;37.08;;
66456;Laerm;56833;52.254;5.598;2022-08-25T00:13:21;29.04;28.01;37.80;;
66456;Laerm;56833;52.254;5.598;2022-08-25T00:13:32;28.95;27.91;33.53;;
66456;Laerm;56833;52.254;5.598;2022-08-25T00:13:43;28.88;27.70;33.21;;
66456;Laerm;56833;52.254;5.598;2022-08-25T00:13:56;29.40;27.67;39.56;;
66456;Laerm;56833;52.254;5.598;2022-08-25T00:14:09;29.20;27.87;40.28;;
66456;Laerm;56833;52.254;5.598;2022-08-25T00:14:22;29.22;27.68;35.96;;
66456;Laerm;56833;52.254;5.598;2022-08-25T00:14:34;29.14;28.16;30.33;;
66456;Laerm;56833;52.254;5.598;2022-08-25T00:14:44;29.16;28.07;33.85;;
66456;Laerm;56833;52.254;5.598;2022-08-25T00:14:54;29.12;27.87;31.82;;
66456;Laerm;56833;52.254;5.598;2022-08-25T00:15:05;28.90;27.80;33.36;;
66456;Laerm;56833;52.254;5.598;2022-08-25T00:15:15;28.97;27.69;34.14;;
66456;Laerm;56833;52.254;5.598;2022-08-25T00:15:26;29.09;27.77;35.53;;
66456;Laerm;56833;52.254;5.598;2022-08-25T00:15:37;29.00;27.85;35.31;;
66456;Laerm;56833;52.254;5.598;2022-08-25T00:15:47;29.08;27.78;37.65;;
66456;Laerm;56833;52.254;5.598;2022-08-25T00:15:58;29.07;27.99;31.73;;
66456;Laerm;56833;52.254;5.598;2022-08-25T00:16:08;30.07;28.20;43.42;;
66456;Laerm;56833;52.254;5.598;2022-08-25T00:16:20;32.50;28.19;44.78;;
66456;Laerm;56833;52.254;5.598;2022-08-25T00:16:31;35.02;29.81;41.09;;
66456;Laerm;56833;52.254;5.598;2022-08-25T00:16:41;36.85;31.35;42.04;;
66456;Laerm;56833;52.254;5.598;2022-08-25T00:16:52;36.58;31.72;41.59;;
66456;Laerm;56833;52.254;5.598;2022-08-25T00:17:03;34.86;30.75;39.80;;
66456;Laerm;56833;52.254;5.598;2022-08-25T00:17:14;33.69;29.89;39.93;;
66456;Laerm;56833;52.254;5.598;2022-08-25T00:17:24;33.44;29.72;39.88;;
66456;Laerm;56833;52.254;5.598;2022-08-25T00:17:34;35.43;31.13;42.27;;
66456;Laerm;56833;52.254;5.598;2022-08-25T00:17:44;36.16;31.66;41.08;;
66456;Laerm;56833;52.254;5.598;2022-08-25T00:17:54;36.97;31.66;41.34;;
66456;Laerm;56833;52.254;5.598;2022-08-25T00:18:05;36.95;32.89;41.49;;
66456;Laerm;56833;52.254;5.598;2022-08-25T00:18:15;35.26;30.67;39.26;;
66456;Laerm;56833;52.254;5.598;2022-08-25T00:18:26;34.14;30.73;37.79;;
66456;Laerm;56833;52.254;5.598;2022-08-25T00:18:37;33.45;29.97;39.33;;
66456;Laerm;56833;52.254;5.598;2022-08-25T00:18:48;33.36;29.24;37.93;;
66456;Laerm;56833;52.254;5.598;2022-08-25T00:19:00;31.79;28.79;37.52;;
66456;Laerm;56833;52.254;5.598;2022-08-25T00:19:13;33.10;29.33;41.54;;
66456;Laerm;56833;52.254;5.598;2022-08-25T00:19:25;32.88;29.76;43.81;;
66456;Laerm;56833;52.254;5.598;2022-08-25T00:19:36;31.63;28.48;40.87;;
66456;Laerm;56833;52.254;5.598;2022-08-25T00:19:46;30.37;28.32;38.39;;
66456;Laerm;56833;52.254;5.598;2022-08-25T00:19:57;29.66;28.38;32.92;;
66456;Laerm;56833;52.254;5.598;2022-08-25T00:20:07;29.35;27.99;32.57;;
66456;Laerm;56833;52.254;5.598;2022-08-25T00:20:18;29.74;27.99;33.30;;
66456;Laerm;56833;52.254;5.598;2022-08-25T00:20:29;29.72;28.12;40.08;;
66456;Laerm;56833;52.254;5.598;2022-08-25T00:20:39;29.17;27.90;38.50;;
66456;Laerm;56833;52.254;5.598;2022-08-25T00:20:49;29.94;28.25;37.08;;
66456;Laerm;56833;52.254;5.598;2022-08-25T00:20:59;29.59;27.98;39.68;;
66456;Laerm;56833;52.254;5.598;2022-08-25T00:21:10;29.27;28.00;37.38;;
66456;Laerm;56833;52.254;5.598;2022-08-25T00:21:20;29.10;27.97;34.17;;
66456;Laerm;56833;52.254;5.598;2022-08-25T00:21:30;29.30;28.11;34.30;;
66456;Laerm;56833;52.254;5.598;2022-08-25T00:21:41;29.26;27.88;34.33;;
66456;Laerm;56833;52.254;5.598;2022-08-25T00:21:52;29.44;27.95;35.13;;
66456;Laerm;56833;52.254;5.598;2022-08-25T00:22:02;29.39;27.92;33.31;;
66456;Laerm;56833;52.254;5.598;2022-08-25T00:22:13;29.35;28.17;32.66;;
66456;Laerm;56833;52.254;5.598;2022-08-25T00:22:23;29.27;27.96;32.71;;
66456;Laerm;56833;52.254;5.598;2022-08-25T00:22:34;29.26;28.24;31.55;;
66456;Laerm;56833;52.254;5.598;2022-08-25T00:22:44;29.43;28.07;40.19;;
66456;Laerm;56833;52.254;5.598;2022-08-25T00:22:54;29.32;27.96;33.28;;
66456;Laerm;56833;52.254;5.598;2022-08-25T00:23:05;29.91;28.34;44.38;;
66456;Laerm;56833;52.254;5.598;2022-08-25T00:23:15;29.41;28.46;32.73;;
66456;Laerm;56833;52.254;5.598;2022-08-25T00:23:26;29.64;28.10;41.00;;
66456;Laerm;56833;52.254;5.598;2022-08-25T00:23:37;29.35;28.16;34.69;;
66456;Laerm;56833;52.254;5.598;2022-08-25T00:23:47;29.34;28.21;34.99;;
66456;Laerm;56833;52.254;5.598;2022-08-25T00:23:58;29.34;27.98;33.42;;
66456;Laerm;56833;52.254;5.598;2022-08-25T00:24:11;30.65;28.38;36.84;;
66456;Laerm;56833;52.254;5.598;2022-08-25T00:24:23;33.28;29.39;38.66;;
66456;Laerm;56833;52.254;5.598;2022-08-25T00:24:34;34.15;29.61;40.90;;
66456;Laerm;56833;52.254;5.598;2022-08-25T00:24:44;35.79;30.21;46.83;;
66456;Laerm;56833;52.254;5.598;2022-08-25T00:24:54;36.90;31.24;43.68;;
66456;Laerm;56833;52.254;5.598;2022-08-25T00:25:05;37.86;31.96;44.48;;
66456;Laerm;56833;52.254;5.598;2022-08-25T00:25:15;39.24;33.09;46.60;;
66456;Laerm;56833;52.254;5.598;2022-08-25T00:25:26;37.27;30.44;43.19;;
66456;Laerm;56833;52.254;5.598;2022-08-25T00:25:37;34.24;29.40;40.41;;
66456;Laerm;56833;52.254;5.598;2022-08-25T00:25:47;34.13;29.61;39.73;;
66456;Laerm;56833;52.254;5.598;2022-08-25T00:25:58;34.03;29.36;41.43;;
66456;Laerm;56833;52.254;5.598;2022-08-25T00:26:08;33.37;28.67;40.69;;
66456;Laerm;56833;52.254;5.598;2022-08-25T00:26:18;30.94;28.20;40.19;;
66456;Laerm;56833;52.254;5.598;2022-08-25T00:26:29;29.80;28.36;34.28;;
66456;Laerm;56833;52.254;5.598;2022-08-25T00:26:40;30.55;28.14;41.85;;
66456;Laerm;56833;52.254;5.598;2022-08-25T00:26:52;29.20;27.92;34.16;;
66456;Laerm;56833;52.254;5.598;2022-08-25T00:27:04;29.04;28.02;33.27;;
66456;Laerm;56833;52.254;5.598;2022-08-25T00:27:14;29.18;28.15;35.75;;
66456;Laerm;56833;52.254;5.598;2022-08-25T00:27:25;29.21;28.07;36.00;;
66456;Laerm;56833;52.254;5.598;2022-08-25T00:27:36;29.06;28.04;32.71;;
66456;Laerm;56833;52.254;5.598;2022-08-25T00:27:46;28.98;27.60;30.28;;
66456;Laerm;56833;52.254;5.598;2022-08-25T00:27:57;28.92;27.71;33.59;;
66456;Laerm;56833;52.254;5.598;2022-08-25T00:28:07;28.88;27.91;30.19;;
66456;Laerm;56833;52.254;5.598;2022-08-25T00:28:19;29.00;27.83;34.76;;
66456;Laerm;56833;52.254;5.598;2022-08-25T00:28:30;29.47;27.82;30.84;;
66456;Laerm;56833;52.254;5.598;2022-08-25T00:28:40;29.26;27.91;31.57;;
66456;Laerm;56833;52.254;5.598;2022-08-25T00:28:50;29.16;28.02;35.00;;
66456;Laerm;56833;52.254;5.598;2022-08-25T00:29:02;29.02;27.88;36.49;;
66456;Laerm;56833;52.254;5.598;2022-08-25T00:29:12;28.96;27.86;31.12;;
66456;Laerm;56833;52.254;5.598;2022-08-25T00:29:23;29.20;27.72;33.41;;
66456;Laerm;56833;52.254;5.598;2022-08-25T00:29:36;29.30;28.06;31.81;;
66456;Laerm;56833;52.254;5.598;2022-08-25T00:29:47;29.39;28.08;37.09;;
66456;Laerm;56833;52.254;5.598;2022-08-25T00:29:57;30.17;28.24;35.97;;
66456;Laerm;56833;52.254;5.598;2022-08-25T00:30:09;29.58;28.11;35.04;;
66456;Laerm;56833;52.254;5.598;2022-08-25T00:30:21;29.27;28.25;30.85;;
66456;Laerm;56833;52.254;5.598;2022-08-25T00:30:31;29.30;28.18;31.51;;
66456;Laerm;56833;52.254;5.598;2022-08-25T00:30:42;29.31;27.84;39.34;;
66456;Laerm;56833;52.254;5.598;2022-08-25T00:30:52;29.19;27.75;33.68;;
66456;Laerm;56833;52.254;5.598;2022-08-25T00:31:02;29.29;27.99;33.33;;
66456;Laerm;56833;52.254;5.598;2022-08-25T00:31:14;29.22;28.12;35.87;;
66456;Laerm;56833;52.254;5.598;2022-08-25T00:31:25;29.74;28.17;31.58;;
66456;Laerm;56833;52.254;5.598;2022-08-25T00:31:35;29.23;28.13;30.32;;
66456;Laerm;56833;52.254;5.598;2022-08-25T00:31:46;29.26;28.10;36.55;;
66456;Laerm;56833;52.254;5.598;2022-08-25T00:31:57;29.19;28.20;30.53;;
66456;Laerm;56833;52.254;5.598;2022-08-25T00:32:07;29.43;28.51;31.13;;
66456;Laerm;56833;52.254;5.598;2022-08-25T00:32:17;29.31;27.97;30.60;;
66456;Laerm;56833;52.254;5.598;2022-08-25T00:32:27;29.74;28.05;33.05;;
66456;Laerm;56833;52.254;5.598;2022-08-25T00:32:38;29.32;28.18;36.37;;
66456;Laerm;56833;52.254;5.598;2022-08-25T00:32:48;29.42;28.06;34.36;;
66456;Laerm;56833;52.254;5.598;2022-08-25T00:32:59;29.38;28.17;32.16;;
66456;Laerm;56833;52.254;5.598;2022-08-25T00:33:09;29.93;28.32;45.57;;
66456;Laerm;56833;52.254;5.598;2022-08-25T00:33:20;29.30;28.12;32.43;;
66456;Laerm;56833;52.254;5.598;2022-08-25T00:33:31;29.86;27.96;44.01;;
66456;Laerm;56833;52.254;5.598;2022-08-25T00:33:42;29.47;28.12;39.10;;
66456;Laerm;56833;52.254;5.598;2022-08-25T00:33:52;29.26;27.80;38.59;;
66456;Laerm;56833;52.254;5.598;2022-08-25T00:34:04;29.17;28.07;33.58;;
66456;Laerm;56833;52.254;5.598;2022-08-25T00:34:17;29.94;28.27;40.15;;
66456;Laerm;56833;52.254;5.598;2022-08-25T00:34:29;31.99;28.81;37.39;;
66456;Laerm;56833;52.254;5.598;2022-08-25T00:34:43;40.81;31.45;45.72;;
66456;Laerm;56833;52.254;5.598;2022-08-25T00:34:53;43.10;37.93;46.78;;
66456;Laerm;56833;52.254;5.598;2022-08-25T00:35:03;41.65;35.97;46.66;;
66456;Laerm;56833;52.254;5.598;2022-08-25T00:35:14;39.76;33.80;43.84;;
66456;Laerm;56833;52.254;5.598;2022-08-25T00:35:25;35.68;30.29;42.15;;
66456;Laerm;56833;52.254;5.598;2022-08-25T00:35:35;35.71;29.46;45.41;;
66456;Laerm;56833;52.254;5.598;2022-08-25T00:35:46;35.91;28.92;44.74;;
66456;Laerm;56833;52.254;5.598;2022-08-25T00:35:56;32.16;28.21;39.85;;
66456;Laerm;56833;52.254;5.598;2022-08-25T00:36:06;29.54;28.29;36.03;;
66456;Laerm;56833;52.254;5.598;2022-08-25T00:36:17;29.57;28.30;37.67;;
66456;Laerm;56833;52.254;5.598;2022-08-25T00:36:28;29.11;27.90;31.16;;
66456;Laerm;56833;52.254;5.598;2022-08-25T00:36:39;29.16;28.01;30.50;;
66456;Laerm;56833;52.254;5.598;2022-08-25T00:36:49;29.41;28.09;40.95;;
66456;Laerm;56833;52.254;5.598;2022-08-25T00:37:01;29.66;28.25;33.20;;
66456;Laerm;56833;52.254;5.598;2022-08-25T00:37:11;30.20;28.53;34.18;;
66456;Laerm;56833;52.254;5.598;2022-08-25T00:37:22;30.13;28.37;34.24;;
66456;Laerm;56833;52.254;5.598;2022-08-25T00:37:32;30.50;28.72;37.84;;
66456;Laerm;56833;52.254;5.598;2022-08-25T00:37:42;30.53;28.75;40.81;;
66456;Laerm;56833;52.254;5.598;2022-08-25T00:37:52;30.15;28.54;37.11;;
66456;Laerm;56833;52.254;5.598;2022-08-25T00:38:03;30.12;28.23;33.78;;
66456;Laerm;56833;52.254;5.598;2022-08-25T00:38:13;30.81;28.84;35.24;;
66456;Laerm;56833;52.254;5.598;2022-08-25T00:38:25;30.87;29.04;34.29;;
66456;Laerm;56833;52.254;5.598;2022-08-25T00:38:36;31.73;28.98;35.40;;
66456;Laerm;56833;52.254;5.598;2022-08-25T00:38:47;31.42;28.71;38.23;;
66456;Laerm;56833;52.254;5.598;2022-08-25T00:38:58;31.31;28.88;39.19;;
66456;Laerm;56833;52.254;5.598;2022-08-25T00:39:09;31.51;29.21;35.53;;
66456;Laerm;56833;52.254;5.598;2022-08-25T00:39:20;30.53;28.91;33.05;;
66456;Laerm;56833;52.254;5.598;2022-08-25T00:39:31;30.82;28.81;35.92;;
66456;Laerm;56833;52.254;5.598;2022-08-25T00:39:42;30.68;28.91;35.17;;
66456;Laerm;56833;52.254;5.598;2022-08-25T00:39:52;31.32;29.10;41.75;;
66456;Laerm;56833;52.254;5.598;2022-08-25T00:40:04;30.18;28.59;35.41;;
66456;Laerm;56833;52.254;5.598;2022-08-25T00:40:15;29.79;28.40;31.72;;
66456;Laerm;56833;52.254;5.598;2022-08-25T00:40:26;29.55;28.51;33.04;;
66456;Laerm;56833;52.254;5.598;2022-08-25T00:40:37;29.24;28.12;30.37;;
66456;Laerm;56833;52.254;5.598;2022-08-25T00:40:48;29.55;28.24;39.79;;
66456;Laerm;56833;52.254;5.598;2022-08-25T00:41:18;29.33;27.87;36.60;;
66456;Laerm;56833;52.254;5.598;2022-08-25T00:41:29;49.45;28.25;63.38;;
66456;Laerm;56833;52.254;5.598;2022-08-25T00:41:40;31.27;28.25;36.09;;
66456;Laerm;56833;52.254;5.598;2022-08-25T00:41:53;32.11;29.05;38.33;;
66456;Laerm;56833;52.254;5.598;2022-08-25T00:42:06;32.87;28.75;42.05;;
66456;Laerm;56833;52.254;5.598;2022-08-25T00:42:16;34.00;29.33;39.37;;
66456;Laerm;56833;52.254;5.598;2022-08-25T00:42:29;34.81;30.22;43.06;;
66456;Laerm;56833;52.254;5.598;2022-08-25T00:42:40;35.68;30.16;40.83;;
66456;Laerm;56833;52.254;5.598;2022-08-25T00:42:50;36.06;29.80;42.61;;
66456;Laerm;56833;52.254;5.598;2022-08-25T00:43:01;35.32;30.86;39.93;;
66456;Laerm;56833;52.254;5.598;2022-08-25T00:43:11;33.53;29.31;39.20;;
66456;Laerm;56833;52.254;5.598;2022-08-25T00:43:22;33.70;28.99;39.47;;
66456;Laerm;56833;52.254;5.598;2022-08-25T00:43:46;31.92;28.69;36.57;;
66456;Laerm;56833;52.254;5.598;2022-08-25T00:43:58;31.57;28.46;40.55;;
66456;Laerm;56833;52.254;5.598;2022-08-25T00:44:11;29.84;28.51;31.40;;
66456;Laerm;56833;52.254;5.598;2022-08-25T00:44:22;30.85;28.78;40.43;;
66456;Laerm;56833;52.254;5.598;2022-08-25T00:44:32;29.72;28.25;31.57;;
66456;Laerm;56833;52.254;5.598;2022-08-25T00:44:44;29.23;28.12;33.14;;
66456;Laerm;56833;52.254;5.598;2022-08-25T00:44:54;29.25;27.74;30.39;;
66456;Laerm;56833;52.254;5.598;2022-08-25T00:45:05;29.32;28.01;36.58;;
66456;Laerm;56833;52.254;5.598;2022-08-25T00:45:16;29.14;28.23;30.67;;
66456;Laerm;56833;52.254;5.598;2022-08-25T00:45:27;29.28;28.04;32.29;;
66456;Laerm;56833;52.254;5.598;2022-08-25T00:45:38;29.41;27.90;31.96;;
66456;Laerm;56833;52.254;5.598;2022-08-25T00:45:48;29.50;28.46;30.62;;
66456;Laerm;56833;52.254;5.598;2022-08-25T00:45:59;33.86;29.08;38.66;;
66456;Laerm;56833;52.254;5.598;2022-08-25T00:46:10;29.85;28.53;35.03;;
66456;Laerm;56833;52.254;5.598;2022-08-25T00:46:23;29.58;27.96;36.79;;
66456;Laerm;56833;52.254;5.598;2022-08-25T00:46:39;29.17;28.13;37.54;;
66456;Laerm;56833;52.254;5.598;2022-08-25T00:46:50;29.68;28.16;35.35;;
66456;Laerm;56833;52.254;5.598;2022-08-25T00:47:02;29.63;28.34;32.42;;
66456;Laerm;56833;52.254;5.598;2022-08-25T00:47:13;29.44;28.10;38.53;;
66456;Laerm;56833;52.254;5.598;2022-08-25T00:47:23;29.43;28.13;36.44;;
66456;Laerm;56833;52.254;5.598;2022-08-25T00:47:34;29.09;28.07;32.67;;
66456;Laerm;56833;52.254;5.598;2022-08-25T00:47:44;29.59;27.68;45.41;;
66456;Laerm;56833;52.254;5.598;2022-08-25T00:47:55;29.23;28.22;32.88;;
66456;Laerm;56833;52.254;5.598;2022-08-25T00:48:05;29.40;28.21;34.62;;
66456;Laerm;56833;52.254;5.598;2022-08-25T00:48:15;29.52;27.86;34.71;;
66456;Laerm;56833;52.254;5.598;2022-08-25T00:48:25;29.62;28.45;35.44;;
66456;Laerm;56833;52.254;5.598;2022-08-25T00:48:36;29.59;28.08;40.94;;
66456;Laerm;56833;52.254;5.598;2022-08-25T00:48:49;29.17;27.90;32.13;;
66456;Laerm;56833;52.254;5.598;2022-08-25T00:49:01;29.33;27.98;33.33;;
66456;Laerm;56833;52.254;5.598;2022-08-25T00:49:13;29.10;27.93;31.53;;
66456;Laerm;56833;52.254;5.598;2022-08-25T00:49:47;29.75;28.08;40.38;;
66456;Laerm;56833;52.254;5.598;2022-08-25T00:49:58;29.34;27.67;33.61;;
66456;Laerm;56833;52.254;5.598;2022-08-25T00:50:10;28.99;27.84;32.84;;
66456;Laerm;56833;52.254;5.598;2022-08-25T00:50:21;28.99;27.85;33.02;;
66456;Laerm;56833;52.254;5.598;2022-08-25T00:50:31;28.98;27.67;36.44;;
66456;Laerm;56833;52.254;5.598;2022-08-25T00:50:43;29.08;27.91;35.21;;
66456;Laerm;56833;52.254;5.598;2022-08-25T00:50:54;29.43;27.94;39.96;;
66456;Laerm;56833;52.254;5.598;2022-08-25T00:51:04;30.24;28.33;35.38;;
66456;Laerm;56833;52.254;5.598;2022-08-25T00:51:18;33.94;29.36;39.98;;
66456;Laerm;56833;52.254;5.598;2022-08-25T00:51:36;35.48;29.90;46.50;;
66456;Laerm;56833;52.254;5.598;2022-08-25T00:51:50;36.54;29.36;46.39;;
66456;Laerm;56833;52.254;5.598;2022-08-25T00:52:12;32.76;29.04;39.65;;
66456;Laerm;56833;52.254;5.598;2022-08-25T00:52:37;33.06;29.02;39.29;;
66456;Laerm;56833;52.254;5.598;2022-08-25T00:52:49;32.83;28.51;39.81;;
66456;Laerm;56833;52.254;5.598;2022-08-25T00:53:01;30.58;28.44;36.02;;
66456;Laerm;56833;52.254;5.598;2022-08-25T00:53:12;29.59;28.25;34.15;;
66456;Laerm;56833;52.254;5.598;2022-08-25T00:53:22;29.33;27.87;36.85;;
66456;Laerm;56833;52.254;5.598;2022-08-25T00:53:33;29.23;28.19;32.12;;
66456;Laerm;56833;52.254;5.598;2022-08-25T00:53:43;29.10;28.10;31.76;;
66456;Laerm;56833;52.254;5.598;2022-08-25T00:53:53;29.44;28.16;41.58;;
66456;Laerm;56833;52.254;5.598;2022-08-25T00:54:04;29.25;27.87;31.66;;
66456;Laerm;56833;52.254;5.598;2022-08-25T00:55:00;29.29;27.94;38.42;;
66456;Laerm;56833;52.254;5.598;2022-08-25T00:55:30;30.36;28.22;41.40;;
66456;Laerm;56833;52.254;5.598;2022-08-25T00:55:42;30.84;28.77;35.64;;
66456;Laerm;56833;52.254;5.598;2022-08-25T00:55:52;30.18;28.66;33.65;;
66456;Laerm;56833;52.254;5.598;2022-08-25T00:56:03;30.20;28.30;37.94;;
66456;Laerm;56833;52.254;5.598;2022-08-25T00:56:13;30.38;28.60;37.06;;
66456;Laerm;56833;52.254;5.598;2022-08-25T00:56:24;30.57;28.54;38.95;;
66456;Laerm;56833;52.254;5.598;2022-08-25T00:56:35;29.78;28.27;34.24;;
66456;Laerm;56833;52.254;5.598;2022-08-25T00:56:46;29.50;28.23;34.34;;
66456;Laerm;56833;52.254;5.598;2022-08-25T00:56:57;29.47;27.80;39.14;;
66456;Laerm;56833;52.254;5.598;2022-08-25T00:57:09;29.33;28.22;34.34;;
66456;Laerm;56833;52.254;5.598;2022-08-25T00:57:23;29.24;27.81;38.03;;
66456;Laerm;56833;52.254;5.598;2022-08-25T00:57:36;29.03;27.68;32.35;;
66456;Laerm;56833;52.254;5.598;2022-08-25T00:57:51;29.06;27.87;36.53;;
66456;Laerm;56833;52.254;5.598;2022-08-25T00:58:14;28.93;27.89;33.57;;
66456;Laerm;56833;52.254;5.598;2022-08-25T00:58:27;29.26;28.06;35.89;;
66456;Laerm;56833;52.254;5.598;2022-08-25T00:58:39;29.30;28.18;34.47;;
66456;Laerm;56833;52.254;5.598;2022-08-25T00:58:51;30.57;28.47;33.30;;
66456;Laerm;56833;52.254;5.598;2022-08-25T00:59:02;29.14;28.10;34.70;;
66456;Laerm;56833;52.254;5.598;2022-08-25T00:59:12;29.13;27.67;37.70;;
66456;Laerm;56833;52.254;5.598;2022-08-25T00:59:23;29.00;27.94;32.32;;
66456;Laerm;56833;52.254;5.598;2022-08-25T00:59:35;29.09;27.77;31.51;;
66456;Laerm;56833;52.254;5.598;2022-08-25T00:59:45;29.02;27.91;31.97;;
66456;Laerm;56833;52.254;5.598;2022-08-25T00:59:56;29.34;28.07;33.03;;
66456;Laerm;56833;52.254;5.598;2022-08-25T01:00:09;29.59;28.20;33.25;;
66456;Laerm;56833;52.254;5.598;2022-08-25T01:00:35;29.70;28.49;36.21;;
66456;Laerm;56833;52.254;5.598;2022-08-25T01:00:47;30.02;28.47;32.58;;
66456;Laerm;56833;52.254;5.598;2022-08-25T01:00:59;32.41;29.08;38.39;;
66456;Laerm;56833;52.254;5.598;2022-08-25T01:01:09;32.79;29.47;38.78;;
66456;Laerm;56833;52.254;5.598;2022-08-25T01:01:20;33.41;28.86;43.70;;
66456;Laerm;56833;52.254;5.598;2022-08-25T01:01:30;33.07;29.07;42.03;;
66456;Laerm;56833;52.254;5.598;2022-08-25T01:01:40;31.87;29.14;37.63;;
66456;Laerm;56833;52.254;5.598;2022-08-25T01:01:51;31.63;29.14;34.38;;
66456;Laerm;56833;52.254;5.598;2022-08-25T01:02:03;31.45;28.82;38.53;;
66456;Laerm;56833;52.254;5.598;2022-08-25T01:02:14;30.68;28.97;37.36;;
66456;Laerm;56833;52.254;5.598;2022-08-25T01:02:25;30.34;28.41;38.81;;
66456;Laerm;56833;52.254;5.598;2022-08-25T01:02:35;29.78;28.22;32.33;;
66456;Laerm;56833;52.254;5.598;2022-08-25T01:02:46;29.82;27.94;32.98;;
66456;Laerm;56833;52.254;5.598;2022-08-25T01:02:56;30.05;28.27;33.45;;
66456;Laerm;56833;52.254;5.598;2022-08-25T01:03:07;29.82;28.67;32.78;;
66456;Laerm;56833;52.254;5.598;2022-08-25T01:03:17;29.63;28.33;31.05;;
66456;Laerm;56833;52.254;5.598;2022-08-25T01:03:29;29.40;28.21;32.16;;
66456;Laerm;56833;52.254;5.598;2022-08-25T01:03:39;29.46;28.25;34.23;;
66456;Laerm;56833;52.254;5.598;2022-08-25T01:03:49;29.23;28.31;30.94;;
66456;Laerm;56833;52.254;5.598;2022-08-25T01:04:00;29.37;28.06;36.36;;
66456;Laerm;56833;52.254;5.598;2022-08-25T01:04:10;29.39;28.31;33.62;;
66456;Laerm;56833;52.254;5.598;2022-08-25T01:04:21;29.37;28.38;31.64;;
66456;Laerm;56833;52.254;5.598;2022-08-25T01:04:32;29.61;28.27;35.00;;